Integrity — WDF4881 — position and weather

sailwx.info

Track history (hours):
 
Tides and Currents Weather Stations Pressure Air Temp Water Temp Dewpoint Dewpoint Depression Visibility Wind Speed Wind Dir Waves Ship Positions

Integrity

Owner: Canal Barge Company, Inc., Belle Chasse, LA. More information available from US FCC via Universal Licensing System and Coast Guard Vessel Documentation Center.

Last reported at 2018-Apr-26 05:53 UTC. Time now 2018-Apr-26 11:08 UTC.
Position N 29°45' W 095°06'.

Length 19 m; draft 2.8 m.

Type: Towing. MMSI: 367456830.

Date/timePositionNaut miles runAvg speedWind from/ knotsBaromVisibWave heightAir tempDewpointWater temp
2018-Apr-26 05:53N 29°45' W 095°06'2 0.1
2018-Apr-25 15:25N 29°44' W 095°08'0 0.6
2018-Apr-25 14:58N 29°44' W 095°08'0 0.6
2018-Apr-25 14:30N 29°44' W 095°08'0 0.0
2018-Apr-25 14:00N 29°44' W 095°08'0 0.0
2018-Apr-25 13:30N 29°44' W 095°08'0 0.4
2018-Apr-25 12:53N 29°44' W 095°09'3 6.9
2018-Apr-25 12:30N 29°45' W 095°12'2 3.8
2018-Apr-25 12:00N 29°43' W 095°13'1 0.0
2018-Apr-24 13:15N 29°43' W 095°14'0 0.9
2018-Apr-24 12:54N 29°43' W 095°14'3 4.8
2018-Apr-24 12:18N 29°45' W 095°11'3 0.2
2018-Apr-23 23:08N 29°44' W 095°08'1 4.9
2018-Apr-23 23:00N 29°44' W 095°07'1 1.6
2018-Apr-23 22:30N 29°45' W 095°06'0 0.0
2018-Apr-23 19:56N 29°45' W 095°06'0 0.0
2018-Apr-23 19:30N 29°45' W 095°06'0 0.0
2018-Apr-23 18:52N 29°45' W 095°06'0 0.0
2018-Apr-23 15:13N 29°45' W 095°06'0 0.0
2018-Apr-23 14:51N 29°45' W 095°06'0 0.0
2018-Apr-23 14:22N 29°45' W 095°06'0 0.0
2018-Apr-23 14:00N 29°45' W 095°06'0 0.0
2018-Apr-23 13:28N 29°45' W 095°06'0 0.0
2018-Apr-23 12:58N 29°45' W 095°06'0 0.0
2018-Apr-23 12:30N 29°45' W 095°06'0 0.0
2018-Apr-23 11:52N 29°45' W 095°06'0 0.1
2018-Apr-23 06:18N 29°45' W 095°06'1 1.4
2018-Apr-23 05:53N 29°44' W 095°07'2 0.1
2018-Apr-22 18:53N 29°44' W 095°08'0 0.0
2018-Apr-22 18:30N 29°44' W 095°08'0 0.0
2018-Apr-22 18:00N 29°44' W 095°08'0 0.0
2018-Apr-22 17:29N 29°44' W 095°08'0 0.0
2018-Apr-22 16:56N 29°44' W 095°08'0 0.0
2018-Apr-22 16:26N 29°44' W 095°08'0 0.0
2018-Apr-22 15:14N 29°44' W 095°08'0 0.0
2018-Apr-22 14:46N 29°44' W 095°08'0 0.0
2018-Apr-22 14:30N 29°44' W 095°08'0 0.0
2018-Apr-22 13:57N 29°44' W 095°08'0 0.0
2018-Apr-22 13:20N 29°44' W 095°08'0 0.0
2018-Apr-22 13:00N 29°44' W 095°08'0 0.0
2018-Apr-22 12:29N 29°44' W 095°08'0 0.0
2018-Apr-21 14:44N 29°44' W 095°09'4 5.1
2018-Apr-21 13:54N 29°44' W 095°13'5 0.1
2018-Apr-19 14:22N 29°44' W 095°08'0 0.1
2018-Apr-19 14:00N 29°44' W 095°08'0 0.7
2018-Apr-19 13:26N 29°44' W 095°08'2 3.9
2018-Apr-19 13:00N 29°45' W 095°06'0 0.0
2018-Apr-18 23:12N 29°45' W 095°06'0 0.0
2018-Apr-18 20:33N 29°45' W 095°06'0 0.0
2018-Apr-18 20:30N 29°45' W 095°06'0 0.0
2018-Apr-18 19:59N 29°45' W 095°06'0 0.0
2018-Apr-18 19:28N 29°45' W 095°06'0 0.0
2018-Apr-18 18:56N 29°45' W 095°06'0 0.2
2018-Apr-18 18:27N 29°45' W 095°06'0 0.5
2018-Apr-18 17:41N 29°45' W 095°06'1 2.5
2018-Apr-18 17:27N 29°45' W 095°06'2 4.4
2018-Apr-18 16:59N 29°44' W 095°08'0 0.2
2018-Apr-18 16:06N 29°44' W 095°08'0 0.1
2018-Apr-18 15:35N 29°44' W 095°08'0 0.0
2018-Apr-18 14:00N 29°44' W 095°08'0 0.0
2018-Apr-18 13:28N 29°44' W 095°08'0 0.0
2018-Apr-18 12:55N 29°44' W 095°08'0 0.0
2018-Apr-18 12:20N 29°44' W 095°08'0 0.0
2018-Apr-18 11:50N 29°44' W 095°08'0 0.0
2018-Apr-18 10:34N 29°44' W 095°08'0 0.0
2018-Apr-18 10:30N 29°44' W 095°08'0 0.1
2018-Apr-18 08:05N 29°44' W 095°08'0 0.0
2018-Apr-18 08:00N 29°44' W 095°08'0 0.0
2018-Apr-18 07:17N 29°44' W 095°08'0 0.0
2018-Apr-18 07:00N 29°44' W 095°08'0 0.0
2018-Apr-18 06:30N 29°44' W 095°08'0 0.0
2018-Apr-18 05:04N 29°44' W 095°08'0 0.0
2018-Apr-18 04:58N 29°44' W 095°08'0 0.0
2018-Apr-18 04:28N 29°44' W 095°08'0 0.0
2018-Apr-18 04:00N 29°44' W 095°08'0 0.0
2018-Apr-18 03:22N 29°44' W 095°08'0 0.0
2018-Apr-18 03:00N 29°44' W 095°08'0 0.0
2018-Apr-18 02:30N 29°44' W 095°08'0 0.0
2018-Apr-18 02:00N 29°44' W 095°08'0 0.0
2018-Apr-18 01:30N 29°44' W 095°08'0 0.0
2018-Apr-18 01:00N 29°44' W 095°08'0 0.0
2018-Apr-17 17:36N 29°44' W 095°08'0 0.0
2018-Apr-17 17:29N 29°44' W 095°08'0 0.0
2018-Apr-17 16:49N 29°44' W 095°08'0 0.0
2018-Apr-17 14:53N 29°44' W 095°08'0 0.1
2018-Apr-17 14:29N 29°44' W 095°08'0 0.2
2018-Apr-17 14:00N 29°44' W 095°08'0 0.0
2018-Apr-17 13:30N 29°44' W 095°08'0 0.0
2018-Apr-17 12:56N 29°44' W 095°08'0 0.0
2018-Apr-17 12:30N 29°44' W 095°08'0 0.0
2018-Apr-17 12:00N 29°44' W 095°08'0 0.0
2018-Apr-17 11:29N 29°44' W 095°08'0 0.0
2018-Apr-17 10:54N 29°44' W 095°08'0 0.0
2018-Apr-17 10:21N 29°44' W 095°08'0 0.0
2018-Apr-17 10:00N 29°44' W 095°08'0 0.0
2018-Apr-17 09:30N 29°44' W 095°08'0 0.0
2018-Apr-17 08:59N 29°44' W 095°08'0 0.0
2018-Apr-17 08:30N 29°44' W 095°08'0 0.0
2018-Apr-17 08:00N 29°44' W 095°08'0 0.0
2018-Apr-17 07:26N 29°44' W 095°08'0 0.0
2018-Apr-17 07:00N 29°44' W 095°08'0 0.0
2018-Apr-17 06:30N 29°44' W 095°08'0 0.0
2018-Apr-17 05:58N 29°44' W 095°08'0 0.0
2018-Apr-17 05:30N 29°44' W 095°08'0 0.0
2018-Apr-17 05:00N 29°44' W 095°08'0 0.0
2018-Apr-17 04:29N 29°44' W 095°08'0 0.0
2018-Apr-17 03:50N 29°44' W 095°08'0 0.0
2018-Apr-17 03:10N 29°44' W 095°08'0 0.0
2018-Apr-17 02:50N 29°44' W 095°08'0 0.0
2018-Apr-17 02:27N 29°44' W 095°08'0 0.0
2018-Apr-17 01:58N 29°44' W 095°08'0 0.0
2018-Apr-16 19:03N 29°44' W 095°08'0 0.5
2018-Apr-16 18:48N 29°44' W 095°08'1 2.9
2018-Apr-16 18:30N 29°44' W 095°07'1 1.6
2018-Apr-16 18:00N 29°45' W 095°06'0 0.0
2018-Apr-16 17:15N 29°45' W 095°06'0 0.0
2018-Apr-16 17:00N 29°45' W 095°06'0 0.0
2018-Apr-16 16:29N 29°45' W 095°06'0 0.0
2018-Apr-16 15:58N 29°45' W 095°06'0 0.0
2018-Apr-16 15:27N 29°45' W 095°06'0 0.0
2018-Apr-16 14:49N 29°45' W 095°06'0 0.0
2018-Apr-16 11:12N 29°45' W 095°06'0 0.0
2018-Apr-16 10:58N 29°45' W 095°06'0 0.0
2018-Apr-16 10:30N 29°45' W 095°06'0 0.0
2018-Apr-16 10:00N 29°45' W 095°06'0 0.0
2018-Apr-16 09:26N 29°45' W 095°06'0 0.0
2018-Apr-16 08:59N 29°45' W 095°06'0 0.0
2018-Apr-16 08:27N 29°45' W 095°06'0 0.0
2018-Apr-16 07:59N 29°45' W 095°06'0 0.0
2018-Apr-16 07:30N 29°45' W 095°06'0 0.0
2018-Apr-16 06:52N 29°45' W 095°06'0 0.2
2018-Apr-16 06:23N 29°45' W 095°06'  
Track history (hours):
 
Tides and Currents Weather Stations Pressure Air Temp Water Temp Dewpoint Dewpoint Depression Visibility Wind Speed Wind Dir Waves Ship Positions

Integrity

Owner: Canal Barge Company, Inc., Belle Chasse, LA. More information available from US FCC via Universal Licensing System and Coast Guard Vessel Documentation Center.

Last reported at 2018-Apr-26 05:53 UTC. Time now 2018-Apr-26 11:08 UTC.
Position N 29°45' W 095°06'.

Length 19 m; draft 2.8 m.

Type: Towing. MMSI: 367456830.

Date/timePositionNaut miles runAvg speedWind from/ knotsBaromVisibWave heightAir tempDewpointWater temp
2018-Apr-26 05:53N 29°45' W 095°06'2 0.1
2018-Apr-25 15:25N 29°44' W 095°08'0 0.6
2018-Apr-25 14:58N 29°44' W 095°08'0 0.6
2018-Apr-25 14:30N 29°44' W 095°08'0 0.0
2018-Apr-25 14:00N 29°44' W 095°08'0 0.0
2018-Apr-25 13:30N 29°44' W 095°08'0 0.4
2018-Apr-25 12:53N 29°44' W 095°09'3 6.9
2018-Apr-25 12:30N 29°45' W 095°12'2 3.8
2018-Apr-25 12:00N 29°43' W 095°13'1 0.0
2018-Apr-24 13:15N 29°43' W 095°14'0 0.9
2018-Apr-24 12:54N 29°43' W 095°14'3 4.8
2018-Apr-24 12:18N 29°45' W 095°11'3 0.2
2018-Apr-23 23:08N 29°44' W 095°08'1 4.9
2018-Apr-23 23:00N 29°44' W 095°07'1 1.6
2018-Apr-23 22:30N 29°45' W 095°06'0 0.0
2018-Apr-23 19:56N 29°45' W 095°06'0 0.0
2018-Apr-23 19:30N 29°45' W 095°06'0 0.0
2018-Apr-23 18:52N 29°45' W 095°06'0 0.0
2018-Apr-23 15:13N 29°45' W 095°06'0 0.0
2018-Apr-23 14:51N 29°45' W 095°06'0 0.0
2018-Apr-23 14:22N 29°45' W 095°06'0 0.0
2018-Apr-23 14:00N 29°45' W 095°06'0 0.0
2018-Apr-23 13:28N 29°45' W 095°06'0 0.0
2018-Apr-23 12:58N 29°45' W 095°06'0 0.0
2018-Apr-23 12:30N 29°45' W 095°06'0 0.0
2018-Apr-23 11:52N 29°45' W 095°06'0 0.1
2018-Apr-23 06:18N 29°45' W 095°06'1 1.4
2018-Apr-23 05:53N 29°44' W 095°07'2 0.1
2018-Apr-22 18:53N 29°44' W 095°08'0 0.0
2018-Apr-22 18:30N 29°44' W 095°08'0 0.0
2018-Apr-22 18:00N 29°44' W 095°08'0 0.0
2018-Apr-22 17:29N 29°44' W 095°08'0 0.0
2018-Apr-22 16:56N 29°44' W 095°08'0 0.0
2018-Apr-22 16:26N 29°44' W 095°08'0 0.0
2018-Apr-22 15:14N 29°44' W 095°08'0 0.0
2018-Apr-22 14:46N 29°44' W 095°08'0 0.0
2018-Apr-22 14:30N 29°44' W 095°08'0 0.0
2018-Apr-22 13:57N 29°44' W 095°08'0 0.0
2018-Apr-22 13:20N 29°44' W 095°08'0 0.0
2018-Apr-22 13:00N 29°44' W 095°08'0 0.0
2018-Apr-22 12:29N 29°44' W 095°08'0 0.0
2018-Apr-21 14:44N 29°44' W 095°09'4 5.1
2018-Apr-21 13:54N 29°44' W 095°13'5 0.1
2018-Apr-19 14:22N 29°44' W 095°08'0 0.1
2018-Apr-19 14:00N 29°44' W 095°08'0 0.7
2018-Apr-19 13:26N 29°44' W 095°08'2 3.9
2018-Apr-19 13:00N 29°45' W 095°06'0 0.0
2018-Apr-18 23:12N 29°45' W 095°06'0 0.0
2018-Apr-18 20:33N 29°45' W 095°06'0 0.0
2018-Apr-18 20:30N 29°45' W 095°06'0 0.0
2018-Apr-18 19:59N 29°45' W 095°06'0 0.0
2018-Apr-18 19:28N 29°45' W 095°06'0 0.0
2018-Apr-18 18:56N 29°45' W 095°06'0 0.2
2018-Apr-18 18:27N 29°45' W 095°06'0 0.5
2018-Apr-18 17:41N 29°45' W 095°06'1 2.5
2018-Apr-18 17:27N 29°45' W 095°06'2 4.4
2018-Apr-18 16:59N 29°44' W 095°08'0 0.2
2018-Apr-18 16:06N 29°44' W 095°08'0 0.1
2018-Apr-18 15:35N 29°44' W 095°08'0 0.0
2018-Apr-18 14:00N 29°44' W 095°08'0 0.0
2018-Apr-18 13:28N 29°44' W 095°08'0 0.0
2018-Apr-18 12:55N 29°44' W 095°08'0 0.0
2018-Apr-18 12:20N 29°44' W 095°08'0 0.0
2018-Apr-18 11:50N 29°44' W 095°08'0 0.0
2018-Apr-18 10:34N 29°44' W 095°08'0 0.0
2018-Apr-18 10:30N 29°44' W 095°08'0 0.1
2018-Apr-18 08:05N 29°44' W 095°08'0 0.0
2018-Apr-18 08:00N 29°44' W 095°08'0 0.0
2018-Apr-18 07:17N 29°44' W 095°08'0 0.0
2018-Apr-18 07:00N 29°44' W 095°08'0 0.0
2018-Apr-18 06:30N 29°44' W 095°08'0 0.0
2018-Apr-18 05:04N 29°44' W 095°08'0 0.0
2018-Apr-18 04:58N 29°44' W 095°08'0 0.0
2018-Apr-18 04:28N 29°44' W 095°08'0 0.0
2018-Apr-18 04:00N 29°44' W 095°08'0 0.0
2018-Apr-18 03:22N 29°44' W 095°08'0 0.0
2018-Apr-18 03:00N 29°44' W 095°08'0 0.0
2018-Apr-18 02:30N 29°44' W 095°08'0 0.0
2018-Apr-18 02:00N 29°44' W 095°08'0 0.0
2018-Apr-18 01:30N 29°44' W 095°08'0 0.0
2018-Apr-18 01:00N 29°44' W 095°08'0 0.0
2018-Apr-17 17:36N 29°44' W 095°08'0 0.0
2018-Apr-17 17:29N 29°44' W 095°08'0 0.0
2018-Apr-17 16:49N 29°44' W 095°08'0 0.0
2018-Apr-17 14:53N 29°44' W 095°08'0 0.1
2018-Apr-17 14:29N 29°44' W 095°08'0 0.2
2018-Apr-17 14:00N 29°44' W 095°08'0 0.0
2018-Apr-17 13:30N 29°44' W 095°08'0 0.0
2018-Apr-17 12:56N 29°44' W 095°08'0 0.0
2018-Apr-17 12:30N 29°44' W 095°08'0 0.0
2018-Apr-17 12:00N 29°44' W 095°08'0 0.0
2018-Apr-17 11:29N 29°44' W 095°08'0 0.0
2018-Apr-17 10:54N 29°44' W 095°08'0 0.0
2018-Apr-17 10:21N 29°44' W 095°08'0 0.0
2018-Apr-17 10:00N 29°44' W 095°08'0 0.0
2018-Apr-17 09:30N 29°44' W 095°08'0 0.0
2018-Apr-17 08:59N 29°44' W 095°08'0 0.0
2018-Apr-17 08:30N 29°44' W 095°08'0 0.0
2018-Apr-17 08:00N 29°44' W 095°08'0 0.0
2018-Apr-17 07:26N 29°44' W 095°08'0 0.0
2018-Apr-17 07:00N 29°44' W 095°08'0 0.0
2018-Apr-17 06:30N 29°44' W 095°08'0 0.0
2018-Apr-17 05:58N 29°44' W 095°08'0 0.0
2018-Apr-17 05:30N 29°44' W 095°08'0 0.0
2018-Apr-17 05:00N 29°44' W 095°08'0 0.0
2018-Apr-17 04:29N 29°44' W 095°08'0 0.0
2018-Apr-17 03:50N 29°44' W 095°08'0 0.0
2018-Apr-17 03:10N 29°44' W 095°08'0 0.0
2018-Apr-17 02:50N 29°44' W 095°08'0 0.0
2018-Apr-17 02:27N 29°44' W 095°08'0 0.0
2018-Apr-17 01:58N 29°44' W 095°08'0 0.0
2018-Apr-16 19:03N 29°44' W 095°08'0 0.5
2018-Apr-16 18:48N 29°44' W 095°08'1 2.9
2018-Apr-16 18:30N 29°44' W 095°07'1 1.6
2018-Apr-16 18:00N 29°45' W 095°06'0 0.0
2018-Apr-16 17:15N 29°45' W 095°06'0 0.0
2018-Apr-16 17:00N 29°45' W 095°06'0 0.0
2018-Apr-16 16:29N 29°45' W 095°06'0 0.0
2018-Apr-16 15:58N 29°45' W 095°06'0 0.0
2018-Apr-16 15:27N 29°45' W 095°06'0 0.0
2018-Apr-16 14:49N 29°45' W 095°06'0 0.0
2018-Apr-16 11:12N 29°45' W 095°06'0 0.0
2018-Apr-16 10:58N 29°45' W 095°06'0 0.0
2018-Apr-16 10:30N 29°45' W 095°06'0 0.0
2018-Apr-16 10:00N 29°45' W 095°06'0 0.0
2018-Apr-16 09:26N 29°45' W 095°06'0 0.0
2018-Apr-16 08:59N 29°45' W 095°06'0 0.0
2018-Apr-16 08:27N 29°45' W 095°06'0 0.0
2018-Apr-16 07:59N 29°45' W 095°06'0 0.0
2018-Apr-16 07:30N 29°45' W 095°06'0 0.0
2018-Apr-16 06:52N 29°45' W 095°06'0 0.2
2018-Apr-16 06:23N 29°45' W 095°06'  

Dump ship's entire track history